VTST

Trang Airport

Thailand
TAF VTST 170500Z 1706/1806 16006KT 9999 SCT020 BKN100 TEMPO 1706/1712 VRB10G20KT 5000 TSRA FEW018CB SCT020 BKN100 BECMG 1712/1714 VRB02KT 8000 BECMG 1722/1724 5000 BR FEW020 BECMG 1800/1802 14006KT 9999 NSW
Issued Valid From Valid To
Nov-17 @ 05:00 UTC
(5 hours ago)
Nov-17 @ 06:00 UTC
(4 hours ago)
Nov-18 @ 06:00 UTC
(in 20 hours)
Nov-17 @ 06:00 to Nov-17 @ 12:00
TAF VTST 170500Z 1706/1806 16006KT 9999 SCT020 BKN100
Wind Visibility Clouds
160° at 6 knots 10,000+ meters
  • Scattered at 2,000' AGL
  • Broken at 10,000' AGL
Temporary Nov-17 @ 06:00 to Nov-17 @ 12:00
TEMPO 1706/1712 VRB10G20KT 5000 TSRA FEW018CB SCT020 BKN100
Wind Visibility Clouds Conditions
Variable at 10 knots
 Gusting to 20 knots
5,005 meters
  • Few at 1,800' AGL
  • Scattered at 2,000' AGL
  • Broken at 10,000' AGL
  • Thunderstorm
  • Rain
Becoming Nov-17 @ 12:00 to Nov-17 @ 22:00
BECMG 1712/1714 VRB02KT 8000
Wind Visibility Clouds
Variable at 2 knots 7,998 meters
  • Scattered at 2,000' AGL
  • Broken at 10,000' AGL
Becoming Nov-17 @ 22:00 to Nov-18 @ 00:00
BECMG 1722/1724 5000 BR FEW020
Wind Visibility Clouds Conditions
Variable at 2 knots 5,005 meters
  • Few at 2,000' AGL
  • Mist
Becoming Nov-18 @ 00:00 to Nov-18 @ 06:00
BECMG 1800/1802 14006KT 9999 NSW
Wind Visibility Clouds Conditions
140° at 6 knots 10,000+ meters
  • Few at 2,000' AGL
TAF VTST 170500Z 1706/1806 16006KT 9999 SCT020 BKN100 TEMPO 1706/1712 VRB10G20KT 5000 TSRA FEW018CB SCT020 BKN100 BECMG 1712/1714 VRB02KT 8000 BECMG 1722/1724 5000 BR FEW020 BECMG 1800/1802 14006KT 9999 NSW
Issued Nov-17 @ 05:00 UTC
(5 hours ago)
Valid From Nov-17 @ 06:00 UTC
(4 hours ago)
Valid To Nov-18 @ 06:00 UTC
(in 20 hours)
Nov-17 @ 06:00 - Nov-17 @ 12:00
Wind Visibility
160° at 6 knots 10,000+ meters
Clouds
  • Scattered at 2,000' AGL
  • Broken at 10,000' AGL
Temporary Nov-17 @ 06:00 - Nov-17 @ 12:00
Wind Visibility
Variable at 10 knots
 Gusting to 20 knots
5,005 meters
Clouds
  • Few at 1,800' AGL
  • Scattered at 2,000' AGL
  • Broken at 10,000' AGL
Conditions
  • Thunderstorm
  • Rain
Becoming Nov-17 @ 12:00 - Nov-17 @ 22:00
Wind Visibility
Variable at 2 knots 7,998 meters
Clouds
  • Scattered at 2,000' AGL
  • Broken at 10,000' AGL
Becoming Nov-17 @ 22:00 - Nov-18 @ 00:00
Wind Visibility
Variable at 2 knots 5,005 meters
Clouds
  • Few at 2,000' AGL
Conditions
  • Mist
Becoming Nov-18 @ 00:00 - Nov-18 @ 06:00
Wind Visibility
140° at 6 knots 10,000+ meters
Clouds
  • Few at 2,000' AGL
Conditions